Nederland, TX

4:04 PM CST on February 09, 2016 (GMT -0600)
Port Neches | | Change Station
CLOSE
Current Station
Personal Weather Station
Location: Port Neches, TX
Elevation: 30 ft
Nearby Weather Stations

Elev 30 ft 29.98 °N, 93.96 °W | Updated 3 minutes ago

Clear
Clear
63.3 °F
Feels Like 63.3 °F
N
6.0
Wind Variable Wind from WNW
Gusts 9.0 mph

Today
High -- | Low -- °F
--% Chance of Precip.
Yesterday
High -- | Low -- °F
Precip. -- in
Pressure 30.18 in
Visibility 10.0 miles
Clouds Clear
Dew Point 31 °F
Humidity 30%
Rainfall 0.00 in
Snow Depth Not available.
7:01 AM 5:59 PM
New Moon, 2% visible
METAR KBPT 092153Z 31017G22KT 10SM CLR 18/M03 A3018 RMK AO2 SLP218 T01781033
Pressure 30.18 in
Visibility 10.0 miles
Clouds Clear
Dew Point 31 °F
Humidity 30%
Rainfall 0.00 in
Snow Depth Not available.
7:01 AM 5:59 PM
New Moon, 2% visible
METAR KBPT 092153Z 31017G22KT 10SM CLR 18/M03 A3018 RMK AO2 SLP218 T01781033

10-Day Weather Forecast

Almanac

Astronomy

Feb. 09, 2016 Rise Set
Actual Time
Civil Twilight
Nautical Twilight
Astronomical Twilight
Moon
Length of Visible Light
Length of Day
Tomorrow will be .
, % of the Moon is Illuminated

Today's Extremes

State Highs State Lows

Community

WunderPhotos

Upload Photos

1,891,719 photos uploaded!

WunderBlog® & News

Nearby

Air Quality

  Air Quality AQ Index Pollutant
Not available.

Snow Depth

Station Depth Elevation

Earthquake Activity

City Distance Mag. Time & Date
Minimum magnitude displayed is 2.5.

Coastal Water Temperatures

Place Temperature

Stations

Nearby Weather Stations

Station Location Temp. Windchill Dew Point Humidity Wind Precip. Elev Updated Type
                   

Watches & Warnings

There are currently no watches in effect.